createdAt,value
2022-08-19T00:02:09.972Z,18.18
2022-08-19T00:04:37.717Z,18.15
2022-08-19T00:07:07.404Z,18.11
2022-08-19T00:09:34.559Z,18.08
2022-08-19T00:12:02.567Z,18.04
2022-08-19T00:14:33.613Z,18.00
2022-08-19T00:17:01.320Z,17.97
2022-08-19T00:19:29.143Z,17.93
2022-08-19T00:21:57.361Z,17.89
2022-08-19T00:24:24.905Z,17.86
2022-08-19T00:26:53.266Z,17.81
2022-08-19T00:29:25.800Z,17.78
2022-08-19T00:31:58.912Z,17.75
2022-08-19T00:34:29.766Z,17.73
2022-08-19T00:36:58.164Z,17.69
2022-08-19T00:39:25.335Z,17.69
2022-08-19T00:41:52.916Z,17.68
2022-08-19T00:44:27.372Z,17.66
2022-08-19T00:46:59.880Z,17.64
2022-08-19T00:49:43.628Z,17.63
2022-08-19T00:52:20.698Z,17.62
2022-08-19T00:54:52.675Z,17.60
2022-08-19T00:57:30.150Z,17.57
2022-08-19T01:00:02.924Z,17.55
2022-08-19T01:02:33.180Z,17.51
2022-08-19T01:05:05.126Z,17.49
2022-08-19T01:07:35.839Z,17.46
2022-08-19T01:10:11.646Z,17.44
2022-08-19T01:12:40.567Z,17.43
2022-08-19T01:15:12.810Z,17.41
2022-08-19T01:17:41.896Z,17.39
2022-08-19T01:20:16.403Z,17.38
2022-08-19T01:22:55.744Z,17.36
2022-08-19T01:25:30.407Z,17.36
2022-08-19T01:28:06.413Z,17.35
2022-08-19T01:30:38.891Z,17.33
2022-08-19T01:33:06.606Z,17.33
2022-08-19T01:35:36.511Z,17.32
2022-08-19T01:38:08.632Z,17.30
2022-08-19T01:40:40.891Z,17.27
2022-08-19T01:43:08.760Z,17.26
2022-08-19T01:45:37.156Z,17.27
2022-08-19T01:48:04.990Z,17.30
2022-08-19T01:50:35.708Z,17.34
2022-08-19T01:53:08.847Z,17.38
2022-08-19T01:55:41.650Z,17.42
2022-08-19T01:58:23.673Z,17.48
2022-08-19T02:00:51.667Z,17.56
2022-08-19T02:03:18.894Z,17.60
2022-08-19T02:05:46.691Z,17.62
2022-08-19T02:08:14.023Z,17.64
2022-08-19T02:10:44.554Z,17.65
2022-08-19T02:13:14.352Z,17.70
2022-08-19T02:15:41.915Z,17.73
2022-08-19T02:18:09.391Z,17.74
2022-08-19T02:20:39.460Z,17.73
2022-08-19T02:23:13.471Z,17.74
2022-08-19T02:25:46.532Z,17.73
2022-08-19T02:28:17.915Z,17.69
2022-08-19T02:30:47.599Z,17.65
2022-08-19T02:33:16.103Z,17.61
2022-08-19T02:35:47.896Z,17.58
2022-08-19T02:38:27.774Z,17.52
2022-08-19T02:41:02.038Z,17.52
2022-08-19T02:43:33.786Z,17.49
2022-08-19T02:46:03.279Z,17.46
2022-08-19T02:48:31.572Z,17.45
2022-08-19T02:50:58.677Z,17.43
2022-08-19T02:53:28.826Z,17.42
2022-08-19T02:55:56.476Z,17.39
2022-08-19T02:58:25.336Z,17.37
2022-08-19T03:00:56.571Z,17.41
2022-08-19T03:03:24.455Z,17.42
2022-08-19T03:05:56.858Z,17.45
2022-08-19T03:08:26.530Z,17.46
2022-08-19T03:10:54.263Z,17.46
2022-08-19T03:13:21.743Z,17.45
2022-08-19T03:15:49.486Z,17.40
2022-08-19T03:18:18.364Z,17.35
2022-08-19T03:20:50.099Z,17.29
2022-08-19T03:23:18.124Z,17.22
2022-08-19T03:26:03.018Z,17.15
2022-08-19T03:28:38.624Z,17.16
2022-08-19T03:31:13.554Z,17.13
2022-08-19T03:34:00.773Z,17.07
2022-08-19T03:36:28.551Z,17.02
2022-08-19T03:39:01.321Z,17.02
2022-08-19T03:41:44.354Z,16.97
2022-08-19T03:44:23.072Z,16.91
2022-08-19T03:46:56.325Z,16.89
2022-08-19T03:49:28.389Z,16.87
2022-08-19T03:52:00.280Z,16.86
2022-08-19T03:54:28.674Z,16.88
2022-08-19T03:56:58.436Z,16.87
2022-08-19T03:59:33.703Z,16.86
2022-08-19T04:02:09.906Z,16.83
2022-08-19T04:04:41.071Z,16.83
2022-08-19T04:07:10.560Z,16.80
2022-08-19T04:09:38.520Z,16.80
2022-08-19T04:12:07.940Z,16.81
2022-08-19T04:14:35.726Z,16.77
2022-08-19T04:17:05.870Z,16.76
2022-08-19T04:19:36.670Z,16.75
2022-08-19T04:22:05.238Z,16.71
2022-08-19T04:24:33.354Z,16.69
2022-08-19T04:27:03.651Z,16.69
2022-08-19T04:29:31.298Z,16.69
2022-08-19T04:32:00.380Z,16.68
2022-08-19T04:35:01.399Z,16.66
2022-08-19T04:37:29.441Z,16.63
2022-08-19T04:40:21.261Z,16.61
2022-08-19T04:42:48.371Z,16.61
2022-08-19T04:45:17.554Z,16.63
2022-08-19T04:47:48.347Z,16.65
2022-08-19T04:50:28.631Z,16.67
2022-08-19T04:52:56.633Z,16.69
2022-08-19T04:55:26.369Z,16.73
2022-08-19T04:57:55.059Z,16.80
2022-08-19T05:00:22.620Z,16.84
2022-08-19T05:02:50.264Z,16.88
2022-08-19T05:05:18.214Z,16.95
2022-08-19T05:07:45.373Z,17.00
2022-08-19T05:10:13.715Z,17.08
2022-08-19T05:12:40.915Z,17.17
2022-08-19T05:15:09.718Z,17.22
2022-08-19T05:17:38.875Z,17.29
2022-08-19T05:20:27.209Z,17.30
2022-08-19T05:22:54.546Z,17.31
2022-08-19T05:25:22.946Z,17.34
2022-08-19T05:27:50.434Z,17.43
2022-08-19T05:30:18.534Z,17.59
2022-08-19T05:32:45.893Z,17.96
2022-08-19T05:35:13.212Z,18.47
2022-08-19T05:37:41.673Z,19.37
2022-08-19T05:40:10.958Z,20.07
2022-08-19T05:42:38.784Z,20.68
2022-08-19T05:45:07.107Z,21.18
2022-08-19T05:47:34.158Z,21.12
2022-08-19T05:50:04.931Z,20.43
2022-08-19T05:52:32.577Z,19.88
2022-08-19T05:55:00.758Z,19.55
2022-08-19T05:57:29.873Z,19.30
2022-08-19T05:59:59.203Z,19.14
2022-08-19T06:02:28.936Z,19.03
2022-08-19T06:04:56.292Z,18.99
2022-08-19T06:07:23.958Z,18.97
2022-08-19T06:10:00.386Z,18.94
2022-08-19T06:12:33.821Z,18.93
2022-08-19T06:15:14.362Z,18.97
2022-08-19T06:17:45.225Z,19.00
2022-08-19T06:20:15.832Z,19.08
2022-08-19T06:22:52.662Z,19.19
2022-08-19T06:25:19.898Z,19.23
2022-08-19T06:28:11.917Z,19.28
2022-08-19T06:30:34.527Z,19.34
2022-08-19T06:33:01.775Z,19.37
2022-08-19T06:35:30.435Z,19.39
2022-08-19T06:37:57.763Z,19.44
2022-08-19T06:40:25.142Z,19.49
2022-08-19T06:42:54.794Z,19.51
2022-08-19T06:45:24.629Z,19.53
2022-08-19T06:47:55.263Z,19.51
2022-08-19T06:50:25.964Z,19.44
2022-08-19T06:52:53.522Z,19.45
2022-08-19T06:55:22.075Z,19.51
2022-08-19T06:57:49.412Z,19.54
2022-08-19T07:00:16.958Z,19.57
2022-08-19T07:02:49.585Z,19.70
2022-08-19T07:05:23.330Z,19.79
2022-08-19T07:07:50.971Z,19.87
2022-08-19T07:10:19.368Z,19.98
2022-08-19T07:12:46.431Z,20.01
2022-08-19T07:15:13.990Z,20.12
2022-08-19T07:17:42.241Z,20.16
2022-08-19T07:20:12.028Z,20.21
2022-08-19T07:22:40.556Z,20.24
2022-08-19T07:25:10.373Z,20.28
2022-08-19T07:27:38.182Z,20.39
2022-08-19T07:30:12.148Z,20.51
2022-08-19T07:32:41.080Z,20.63
2022-08-19T07:35:10.263Z,20.71
2022-08-19T07:37:38.096Z,20.83
2022-08-19T07:40:08.670Z,20.93
2022-08-19T07:42:35.876Z,21.00
2022-08-19T07:45:07.091Z,21.03
2022-08-19T07:47:47.687Z,21.08
2022-08-19T07:50:20.752Z,21.19
2022-08-19T07:52:50.756Z,21.32
2022-08-19T07:55:42.683Z,21.41
2022-08-19T07:58:14.960Z,21.52
2022-08-19T08:00:43.705Z,21.61
2022-08-19T08:03:12.430Z,21.72
2022-08-19T08:05:58.243Z,21.86
2022-08-19T08:08:47.998Z,21.93
2022-08-19T08:11:20.501Z,22.04
2022-08-19T08:19:20.563Z,22.11
2022-08-19T08:21:56.186Z,22.13
2022-08-19T08:24:28.297Z,22.24
2022-08-19T08:26:57.789Z,22.27
2022-08-19T08:29:34.807Z,22.25
2022-08-19T08:32:04.446Z,22.29
2022-08-19T08:34:41.484Z,22.34
2022-08-19T08:37:08.839Z,22.41
2022-08-19T08:39:36.049Z,22.53
2022-08-19T08:42:18.418Z,22.60
2022-08-19T08:44:59.152Z,22.71
2022-08-19T08:47:35.712Z,22.83
2022-08-19T08:50:15.486Z,22.92
2022-08-19T08:52:52.164Z,23.01
2022-08-19T08:55:37.128Z,23.13
2022-08-19T08:58:25.295Z,23.34
2022-08-19T09:00:52.355Z,23.40
2022-08-19T09:03:25.573Z,23.48
2022-08-19T09:06:21.315Z,23.60
2022-08-19T09:09:11.850Z,23.66
2022-08-19T09:12:19.136Z,23.79
2022-08-19T09:15:09.093Z,23.94
2022-08-19T09:17:39.310Z,24.11
2022-08-19T09:20:20.671Z,24.23
2022-08-19T09:22:50.061Z,24.32
2022-08-19T09:25:29.480Z,24.32
2022-08-19T09:28:02.980Z,24.38
2022-08-19T09:30:42.141Z,24.43
2022-08-19T09:33:09.738Z,24.48
2022-08-19T09:35:49.504Z,24.53
2022-08-19T09:38:22.193Z,24.58
2022-08-19T09:40:50.430Z,24.63
2022-08-19T09:43:33.197Z,24.66
2022-08-19T09:46:02.799Z,24.78
2022-08-19T09:48:30.089Z,24.87
2022-08-19T09:51:09.018Z,24.90
2022-08-19T09:53:40.094Z,25.01
2022-08-19T09:56:08.327Z,25.10
2022-08-19T09:58:38.195Z,25.18
2022-08-19T10:01:07.489Z,25.20
2022-08-19T10:03:37.433Z,25.19
2022-08-19T10:06:14.931Z,25.17
2022-08-19T10:08:50.215Z,25.15
2022-08-19T10:11:27.802Z,25.03
2022-08-19T10:14:03.863Z,25.04
2022-08-19T10:16:31.492Z,25.16
2022-08-19T10:19:06.834Z,25.38
2022-08-19T10:21:35.325Z,25.45
2022-08-19T10:24:06.656Z,25.46
2022-08-19T10:26:38.682Z,25.23
2022-08-19T10:29:09.475Z,24.96
2022-08-19T10:32:00.803Z,24.85
2022-08-19T10:34:27.947Z,24.89
2022-08-19T10:37:01.164Z,24.99
2022-08-19T10:39:32.704Z,24.75
2022-08-19T10:42:11.530Z,24.71
2022-08-19T10:44:38.855Z,24.68
2022-08-19T10:47:17.476Z,24.75
2022-08-19T10:50:11.804Z,24.64
2022-08-19T10:52:50.396Z,24.64
2022-08-19T10:55:44.151Z,24.74
2022-08-19T10:58:18.635Z,24.79
2022-08-19T11:00:59.779Z,24.87
2022-08-19T11:03:31.570Z,24.70
2022-08-19T11:06:05.452Z,24.87
2022-08-19T11:08:35.331Z,25.07
2022-08-19T11:11:04.270Z,25.34
2022-08-19T11:13:34.953Z,25.58
2022-08-19T11:16:10.499Z,25.72
2022-08-19T11:18:43.654Z,25.80
2022-08-19T11:21:17.829Z,25.92
2022-08-19T11:23:46.731Z,26.00
2022-08-19T11:26:16.496Z,26.14
2022-08-19T11:28:44.219Z,26.24
2022-08-19T11:31:17.568Z,26.32
2022-08-19T11:33:47.873Z,26.26
2022-08-19T11:36:16.969Z,26.31
2022-08-19T11:38:46.271Z,26.45
2022-08-19T11:41:13.325Z,26.46
2022-08-19T11:43:40.877Z,26.30
2022-08-19T11:46:12.709Z,26.31
2022-08-19T11:48:40.737Z,26.26
2022-08-19T11:51:16.071Z,26.00
2022-08-19T11:53:43.538Z,26.04
2022-08-19T11:56:11.844Z,26.18
2022-08-19T11:58:40.119Z,26.16
2022-08-19T12:01:12.052Z,26.14
2022-08-19T12:03:40.397Z,26.15
2022-08-19T12:06:13.548Z,26.10
2022-08-19T12:08:43.223Z,26.16
2022-08-19T12:11:12.411Z,26.17
2022-08-19T12:13:40.716Z,26.23
2022-08-19T12:16:15.096Z,26.39
2022-08-19T12:18:51.809Z,26.56
2022-08-19T12:21:29.524Z,26.59
2022-08-19T12:23:59.508Z,26.48
2022-08-19T12:26:29.683Z,26.45
2022-08-19T12:28:56.820Z,26.60
2022-08-19T12:31:23.912Z,26.72
2022-08-19T12:33:52.819Z,26.70
2022-08-19T12:36:20.339Z,26.70
2022-08-19T12:38:47.757Z,26.75
2022-08-19T12:41:19.223Z,26.94
2022-08-19T12:43:46.972Z,27.10
2022-08-19T12:46:15.156Z,27.08
2022-08-19T12:48:45.936Z,27.07
2022-08-19T12:51:18.718Z,27.23
2022-08-19T12:53:46.869Z,27.24
2022-08-19T12:56:15.747Z,27.10
2022-08-19T12:58:49.006Z,27.17
2022-08-19T13:01:22.655Z,27.25
2022-08-19T13:03:51.118Z,27.40
2022-08-19T13:06:19.425Z,27.41
2022-08-19T13:08:48.183Z,27.33
2022-08-19T13:11:19.330Z,27.34
2022-08-19T13:13:49.711Z,27.26
2022-08-19T13:16:17.128Z,27.33
2022-08-19T13:18:52.754Z,27.38
2022-08-19T13:21:23.911Z,27.37
2022-08-19T13:23:52.510Z,27.44
2022-08-19T13:26:20.126Z,27.36
2022-08-19T13:29:05.590Z,27.25
2022-08-19T13:31:54.964Z,27.29
2022-08-19T13:34:33.708Z,27.50
2022-08-19T13:37:04.002Z,27.66
2022-08-19T13:39:33.773Z,27.70
2022-08-19T13:42:01.667Z,27.72
2022-08-19T13:44:32.556Z,27.67
2022-08-19T13:47:08.096Z,27.54
2022-08-19T13:49:37.355Z,27.54
2022-08-19T13:52:06.632Z,27.83
2022-08-19T13:54:34.049Z,27.65
2022-08-19T13:57:01.146Z,27.46
2022-08-19T13:59:28.238Z,27.59
2022-08-19T14:02:00.979Z,27.53
2022-08-19T14:04:28.587Z,27.41
2022-08-19T14:06:56.031Z,27.58
2022-08-19T14:09:23.314Z,27.67
2022-08-19T14:11:51.788Z,27.67
2022-08-19T14:14:18.888Z,27.61
2022-08-19T14:16:45.903Z,27.58
2022-08-19T14:19:12.970Z,27.62
2022-08-19T14:21:41.967Z,27.77
2022-08-19T14:24:09.681Z,27.69
2022-08-19T14:26:36.686Z,27.64
2022-08-19T14:29:03.916Z,27.57
2022-08-19T14:31:31.118Z,27.51
2022-08-19T14:33:58.262Z,27.48
2022-08-19T14:36:25.388Z,27.54
2022-08-19T14:38:52.632Z,27.60
2022-08-19T14:41:23.675Z,27.62
2022-08-19T14:43:54.351Z,27.66
2022-08-19T14:46:26.292Z,27.65
2022-08-19T14:48:57.122Z,27.63
2022-08-19T14:51:28.528Z,27.71
2022-08-19T14:53:56.342Z,27.77
2022-08-19T14:56:28.395Z,27.79
2022-08-19T14:58:56.203Z,27.42
2022-08-19T15:01:24.207Z,27.13
2022-08-19T15:03:55.702Z,27.01
2022-08-19T15:06:25.675Z,27.01
2022-08-19T15:08:53.748Z,27.09
2022-08-19T15:11:24.983Z,27.18
2022-08-19T15:13:52.443Z,27.30
2022-08-19T15:16:21.188Z,27.38
2022-08-19T15:18:53.126Z,27.63
2022-08-19T15:21:27.281Z,27.93
2022-08-19T15:23:58.202Z,28.11
2022-08-19T15:26:29.020Z,28.25
2022-08-19T15:28:56.969Z,28.28
2022-08-19T15:31:25.438Z,28.13
2022-08-19T15:33:59.140Z,27.73
2022-08-19T15:36:28.350Z,27.33
2022-08-19T15:38:59.001Z,26.91
2022-08-19T15:41:31.634Z,26.60
2022-08-19T15:44:04.397Z,26.33
2022-08-19T15:46:34.247Z,26.17
2022-08-19T15:49:01.784Z,26.09
2022-08-19T15:51:32.442Z,26.38
2022-08-19T15:54:00.394Z,26.58
2022-08-19T15:56:58.190Z,26.50
2022-08-19T15:59:47.517Z,26.36
2022-08-19T16:02:37.175Z,26.23
2022-08-19T16:05:27.100Z,26.03
2022-08-19T16:07:54.792Z,25.89
2022-08-19T16:10:26.459Z,25.78
2022-08-19T16:12:57.977Z,25.62
2022-08-19T16:15:30.594Z,25.53
2022-08-19T16:17:58.150Z,25.42
2022-08-19T16:20:27.740Z,25.27
2022-08-19T16:22:58.542Z,25.11
2022-08-19T16:25:29.246Z,24.96
2022-08-19T16:28:07.879Z,24.83
2022-08-19T16:30:39.370Z,24.71
2022-08-19T16:33:08.013Z,24.64
2022-08-19T16:35:35.526Z,24.56
2022-08-19T16:38:02.736Z,24.49
2022-08-19T16:40:29.975Z,24.39
2022-08-19T16:42:57.090Z,24.33
2022-08-19T16:45:24.837Z,24.25
2022-08-19T16:47:52.246Z,24.19
2022-08-19T16:50:25.356Z,24.15
2022-08-19T16:53:09.421Z,24.16
2022-08-19T16:55:37.672Z,24.16
2022-08-19T16:58:05.040Z,24.16
2022-08-19T17:00:32.103Z,24.17
2022-08-19T17:03:14.749Z,24.15
2022-08-19T17:05:44.198Z,24.14
2022-08-19T17:08:11.670Z,24.07
2022-08-19T17:10:39.879Z,24.00
2022-08-19T17:13:07.479Z,23.97
2022-08-19T17:15:34.869Z,23.96
2022-08-19T17:18:04.975Z,23.92
2022-08-19T17:20:33.827Z,23.76
2022-08-19T17:23:01.187Z,23.65
2022-08-19T17:25:31.358Z,23.46
2022-08-19T17:28:10.700Z,23.27
2022-08-19T17:30:38.804Z,23.14
2022-08-19T17:33:06.103Z,23.00
2022-08-19T17:35:33.967Z,22.93
2022-08-19T17:38:07.983Z,22.80
2022-08-19T17:40:38.598Z,22.73
2022-08-19T17:43:08.767Z,22.65
2022-08-19T17:45:38.654Z,22.59
2022-08-19T17:48:06.486Z,22.52
2022-08-19T17:50:35.212Z,22.42
2022-08-19T17:53:05.474Z,22.38
2022-08-19T17:55:34.666Z,22.34
2022-08-19T17:58:05.148Z,22.34
2022-08-19T18:00:35.867Z,22.35
2022-08-19T18:03:05.990Z,22.34
2022-08-19T18:05:42.340Z,22.31
2022-08-19T18:08:12.114Z,22.27
2022-08-19T18:10:39.272Z,22.24
2022-08-19T18:13:16.892Z,22.25
2022-08-19T18:15:44.800Z,22.24
2022-08-19T18:18:14.903Z,22.23
2022-08-19T18:20:44.648Z,22.18
2022-08-19T18:23:45.370Z,22.13
2022-08-19T18:25:59.363Z,22.06
2022-08-19T18:28:26.836Z,22.01
2022-08-19T18:30:54.071Z,21.96
2022-08-19T18:33:21.227Z,21.92
2022-08-19T18:35:52.084Z,21.91
2022-08-19T18:38:40.859Z,21.90
2022-08-19T18:41:27.644Z,21.88
2022-08-19T18:44:14.978Z,21.85
2022-08-19T18:47:00.684Z,21.83
2022-08-19T18:49:33.799Z,21.82
2022-08-19T18:52:03.562Z,21.78
2022-08-19T18:54:30.782Z,21.73
2022-08-19T18:56:58.003Z,21.66
2022-08-19T18:59:28.722Z,21.61
2022-08-19T19:01:59.565Z,21.58
2022-08-19T19:04:32.789Z,21.54
2022-08-19T19:07:00.221Z,21.49
2022-08-19T19:09:27.876Z,21.44
2022-08-19T19:12:02.670Z,21.41
2022-08-19T19:14:50.566Z,21.38
2022-08-19T19:17:18.578Z,21.42
2022-08-19T19:19:45.750Z,21.44
2022-08-19T19:22:18.179Z,21.44
2022-08-19T19:24:45.918Z,21.44
2022-08-19T19:27:18.362Z,21.46
2022-08-19T19:29:51.507Z,21.46
2022-08-19T19:32:36.944Z,21.40
2022-08-19T19:35:09.829Z,21.38
2022-08-19T19:37:37.032Z,21.32
2022-08-19T19:40:04.681Z,21.28
2022-08-19T19:42:31.709Z,21.26
2022-08-19T19:45:01.273Z,21.30
2022-08-19T19:47:30.316Z,21.34
2022-08-19T19:50:14.296Z,21.37
2022-08-19T19:52:46.055Z,21.42
2022-08-19T19:55:17.991Z,21.42
2022-08-19T19:57:50.042Z,21.41
2022-08-19T20:00:19.052Z,21.43
2022-08-19T20:02:50.102Z,21.44
2022-08-19T20:05:21.269Z,21.45
2022-08-19T20:08:09.395Z,21.47
2022-08-19T20:10:37.678Z,21.48
2022-08-19T20:13:06.698Z,21.40
2022-08-19T20:15:37.934Z,21.37
2022-08-19T20:18:07.491Z,21.34
2022-08-19T20:20:35.446Z,21.35
2022-08-19T20:23:02.604Z,21.34
2022-08-19T20:25:30.430Z,21.35
2022-08-19T20:27:57.750Z,21.29
2022-08-19T20:30:25.618Z,21.26
2022-08-19T20:32:56.436Z,21.25
2022-08-19T20:35:24.024Z,21.26
2022-08-19T20:37:57.970Z,21.20
2022-08-19T20:40:27.763Z,21.14
2022-08-19T20:42:55.422Z,21.10
2022-08-19T20:45:32.700Z,21.04
2022-08-19T20:48:03.209Z,21.00
2022-08-19T20:50:33.415Z,20.98
2022-08-19T20:53:01.693Z,20.94
2022-08-19T20:55:30.467Z,20.90
2022-08-19T20:57:58.632Z,20.86
2022-08-19T21:00:26.400Z,20.85
2022-08-19T21:02:53.496Z,20.80
2022-08-19T21:05:20.645Z,20.75
2022-08-19T21:07:47.755Z,20.74
2022-08-19T21:10:16.495Z,20.71
2022-08-19T21:12:44.393Z,20.68
2022-08-19T21:15:12.107Z,20.63
2022-08-19T21:17:39.966Z,20.58
2022-08-19T21:20:09.718Z,20.54
2022-08-19T21:22:36.803Z,20.51
2022-08-19T21:25:05.384Z,20.47
2022-08-19T21:27:32.888Z,20.43
2022-08-19T21:30:00.238Z,20.41
2022-08-19T21:32:27.346Z,20.37
2022-08-19T21:34:54.439Z,20.36
2022-08-19T21:37:25.048Z,20.33
2022-08-19T21:39:55.366Z,20.35
2022-08-19T21:42:24.058Z,20.34
2022-08-19T21:44:51.756Z,20.34
2022-08-19T21:47:19.055Z,20.34
2022-08-19T21:49:46.242Z,20.36
2022-08-19T21:52:13.612Z,20.36
2022-08-19T21:54:41.059Z,20.38
2022-08-19T21:57:10.900Z,20.39
2022-08-19T21:59:44.060Z,20.39
2022-08-19T22:02:22.120Z,20.37
2022-08-19T22:04:54.567Z,20.36
2022-08-19T22:07:22.362Z,20.33
2022-08-19T22:09:51.578Z,20.35
2022-08-19T22:12:27.191Z,20.39
2022-08-19T22:14:56.602Z,20.39
2022-08-19T22:17:26.459Z,20.39
2022-08-19T22:19:56.275Z,20.41
2022-08-19T22:22:33.002Z,20.42
2022-08-19T22:25:31.717Z,20.43
2022-08-19T22:28:02.098Z,20.41
2022-08-19T22:30:33.529Z,20.39
2022-08-19T22:33:06.386Z,20.37
2022-08-19T22:35:38.187Z,20.33
2022-08-19T22:38:08.209Z,20.33
2022-08-19T22:40:40.363Z,20.32
2022-08-19T22:43:15.125Z,20.31
2022-08-19T22:45:44.375Z,20.26
2022-08-19T22:48:15.936Z,20.22
2022-08-19T22:51:05.059Z,20.20
2022-08-19T22:53:36.339Z,20.17
2022-08-19T22:56:06.575Z,20.18
2022-08-19T22:58:34.267Z,20.17
2022-08-19T23:01:02.127Z,20.20
2022-08-19T23:03:29.351Z,20.19
2022-08-19T23:05:56.933Z,20.20
2022-08-19T23:08:24.203Z,20.18
2022-08-19T23:10:51.392Z,20.17
2022-08-19T23:13:19.009Z,20.17
2022-08-19T23:15:47.043Z,20.15
2022-08-19T23:18:14.387Z,20.16
2022-08-19T23:20:44.684Z,20.16
2022-08-19T23:23:18.763Z,20.17
2022-08-19T23:25:47.640Z,20.17
2022-08-19T23:28:33.360Z,20.17
2022-08-19T23:31:02.143Z,20.16
2022-08-19T23:33:50.743Z,20.16
2022-08-19T23:36:20.943Z,20.15
2022-08-19T23:38:51.953Z,20.17
2022-08-19T23:41:23.445Z,20.20
2022-08-19T23:43:50.877Z,20.22
2022-08-19T23:46:27.546Z,20.23
2022-08-19T23:48:57.923Z,20.23
2022-08-19T23:51:26.315Z,20.25
2022-08-19T23:53:53.831Z,20.25
2022-08-19T23:56:21.414Z,20.25
2022-08-19T23:58:49.208Z,20.24
